Main page
METAR-TAF:

METAR-TAF

Airports :

Calgary International Airport

Calgary, Alberta, Canada

latitude: 51-07N, longitude: 114-01W, elevation: 1077 m

Current weather observation

The report was made 21 minutes ago, at 04:00 UTC
Wind 3 kt from the West/Northwest, varying between West and North/Northwest
Temperature 12°C
Humidity 28%
Pressure 1024 hPa
Visibility: 24.1 km
Few clouds at a height of 23000 ft

METAR: CYYC 170400Z 29003KT 260V330 15SM FEW230 12/M06 A3024 RMK CI1 CI TR SLP261 DENSITY ALT 3800FT

Time: 22:21 (04:21 UTC)

Forecast

The report was made 1 hour and 43 minutes ago, at 02:38 UTC
Forecast valid from 17 at 03 UTC to 17 at 24 UTC
Wind 3 kt from variable directions
Visibility: 10 km
Few clouds at a height of 24000 ft
Becoming
from 17 at 18 UTC to 17 at 20 UTC
Wind 10 kt from the West with gusts up to 20 kt

TAF: CYYC 170238Z 1703/1724 VRB03KT P6SM FEW240 BECMG 1718/1720 27010G20KT RMK NXT FCST BY 170600Z

Weather observations and forecasts of more than 4000 airports (METAR and TAF reports).

The available stations are represented by yellow and red dots on the map.

Hover mouse over dot to see the name of the station.

Then click to see weather observations and forecasts.

To change the map : click on the green buttons with a black cross to zoom in, on the green button with a dash to zoom out, or on the green arrows for adjacent maps.


METAR-TAF: